Time;durP1;ratioP1;P1;durP2;ratioP2;P2;SDS_P1;SDS_P2;PMS_P1;PMS_P2;Temp;Humidity;BMP_temperature;BMP_pressure;BME280_temperature;BME280_humidity;BME280_pressure;Samples;Min_cycle;Max_cycle;Signal;HPM_P1;HPM_P2
2022/10/20 00:00:47;;;;;;;10.53;6.97;;;9.40;99.90;;;;;;5054405;28;20288;-80
2022/10/20 00:03:14;;;;;;;12.00;6.43;;;9.40;99.90;;;;;;5054970;28;20230;-79
2022/10/20 00:05:41;;;;;;;10.77;7.07;;;9.40;99.90;;;;;;5054783;28;20206;-82
2022/10/20 00:08:08;;;;;;;11.90;7.07;;;9.40;99.90;;;;;;5054391;28;20544;-83
2022/10/20 00:10:35;;;;;;;9.37;5.80;;;9.40;99.90;;;;;;5054407;28;20673;-81
2022/10/20 00:13:01;;;;;;;11.27;7.33;;;9.40;99.90;;;;;;5054152;28;20281;-78
2022/10/20 00:15:28;;;;;;;10.60;6.37;;;9.40;99.90;;;;;;5053866;28;20198;-76
2022/10/20 00:17:56;;;;;;;9.63;6.73;;;9.40;99.90;;;;;;5056036;28;20230;-80
2022/10/20 00:20:23;;;;;;;10.73;6.97;;;9.40;99.90;;;;;;5074222;28;20208;-78
2022/10/20 00:22:50;;;;;;;9.73;6.43;;;9.40;99.90;;;;;;5073767;28;20213;-78
2022/10/20 00:25:17;;;;;;;7.23;6.43;;;9.40;99.90;;;;;;5060714;28;20217;-79
2022/10/20 00:27:44;;;;;;;7.93;5.73;;;9.40;99.90;;;;;;5053713;28;20595;-84
2022/10/20 00:30:11;;;;;;;11.03;7.00;;;9.40;99.90;;;;;;5052963;28;20487;-78
2022/10/20 00:32:38;;;;;;;10.03;6.27;;;9.30;99.90;;;;;;5053386;28;20609;-78
2022/10/20 00:35:07;;;;;;;9.07;6.43;;;9.40;99.90;;;;;;5068949;28;20288;-77
2022/10/20 00:37:34;;;;;;;7.77;6.10;;;9.30;99.90;;;;;;5073345;28;20200;-78
2022/10/20 00:40:01;;;;;;;10.47;6.63;;;9.30;99.90;;;;;;5073680;28;20209;-79
2022/10/20 00:42:28;;;;;;;7.67;6.23;;;9.30;99.90;;;;;;5072089;28;20227;-79
2022/10/20 00:44:56;;;;;;;9.13;6.33;;;9.30;99.90;;;;;;5060216;28;20225;-81
2022/10/20 00:47:35;;;;;;;10.07;7.13;;;9.30;99.90;;;;;;5053413;28;20212;-80
2022/10/20 00:50:10;;;;;;;8.83;6.57;;;9.30;99.90;;;;;;5053016;28;20194;-83
2022/10/20 00:52:37;;;;;;;9.97;6.57;;;9.30;99.90;;;;;;5065872;28;20241;-78
2022/10/20 00:55:07;;;;;;;10.70;6.73;;;9.30;99.90;;;;;;5073001;28;20231;-81
2022/10/20 00:57:34;;;;;;;10.43;6.63;;;9.30;99.90;;;;;;5071185;28;20277;-79
2022/10/20 01:00:01;;;;;;;8.07;6.07;;;9.30;99.90;;;;;;5072780;28;20482;-82
2022/10/20 01:02:28;;;;;;;7.60;6.83;;;9.30;99.90;;;;;;5072993;28;20217;-83
2022/10/20 01:04:55;;;;;;;9.23;7.03;;;9.30;99.90;;;;;;5065053;28;20259;-80
2022/10/20 01:07:23;;;;;;;8.60;7.03;;;9.20;99.90;;;;;;5052990;28;20202;-77
2022/10/20 01:09:50;;;;;;;7.10;6.27;;;9.20;99.90;;;;;;5053341;28;20186;-83
2022/10/20 01:12:26;;;;;;;10.73;6.70;;;9.20;99.90;;;;;;5059383;28;20209;-80
2022/10/20 01:15:02;;;;;;;10.97;6.27;;;9.20;99.90;;;;;;5072772;28;20504;-80
2022/10/20 01:17:39;;;;;;;11.63;7.40;;;9.20;99.90;;;;;;5053028;28;20194;-81
2022/10/20 01:20:43;;;;;;;9.77;7.30;;;9.20;99.90;;;;;;5052784;28;20182;-78
2022/10/20 01:23:43;;;;;;;9.20;6.47;;;9.20;99.90;;;;;;5031999;28;20232;-82
2022/10/20 01:26:42;;;;;;;8.43;7.23;;;9.10;99.90;;;;;;5072229;28;20478;-81
2022/10/20 01:29:16;;;;;;;9.40;6.97;;;9.20;99.90;;;;;;5058003;28;20214;-78
2022/10/20 01:31:50;;;;;;;11.50;7.90;;;9.20;99.90;;;;;;5052533;28;20491;-79
2022/10/20 01:34:24;;;;;;;12.37;7.53;;;9.10;99.90;;;;;;5051923;28;20259;-80
2022/10/20 01:36:56;;;;;;;9.43;7.80;;;9.10;99.90;;;;;;5051961;28;20280;-78
2022/10/20 01:39:28;;;;;;;10.13;7.50;;;9.10;99.90;;;;;;5051112;28;20597;-80
2022/10/20 01:42:00;;;;;;;11.90;7.33;;;9.10;99.90;;;;;;5051762;28;20209;-78
2022/10/20 01:44:30;;;;;;;9.27;7.33;;;9.10;99.90;;;;;;5051968;28;20667;-78
2022/10/20 01:46:58;;;;;;;10.40;7.40;;;9.10;99.90;;;;;;5054238;28;20217;-78
2022/10/20 01:49:26;;;;;;;12.87;8.30;;;9.00;99.90;;;;;;5051609;28;20198;-82
2022/10/20 01:51:53;;;;;;;11.17;8.40;;;9.00;99.90;;;;;;5050980;28;20256;-78
2022/10/20 01:54:22;;;;;;;11.77;8.27;;;9.10;99.90;;;;;;5051216;28;20225;-77
2022/10/20 01:57:01;;;;;;;10.93;8.13;;;9.10;99.90;;;;;;5051371;28;20202;-78
2022/10/20 01:59:42;;;;;;;13.13;8.87;;;9.00;99.90;;;;;;5052878;28;20197;-77
2022/10/20 02:02:32;;;;;;;13.23;8.83;;;9.00;99.90;;;;;;5055697;28;20280;-78
2022/10/20 02:05:13;;;;;;;10.97;8.97;;;9.00;99.90;;;;;;5055964;28;20204;-78
2022/10/20 02:07:41;;;;;;;11.13;8.97;;;9.00;99.90;;;;;;5055057;28;20200;-78
2022/10/20 02:10:13;;;;;;;13.50;9.30;;;9.00;99.90;;;;;;5055900;28;20502;-78
2022/10/20 02:12:43;;;;;;;11.87;8.83;;;9.00;99.90;;;;;;5072686;28;20209;-78
2022/10/20 02:15:17;;;;;;;12.37;9.20;;;9.00;99.90;;;;;;5073653;28;20769;-78
2022/10/20 02:17:47;;;;;;;14.00;10.10;;;9.00;99.90;;;;;;5075542;28;20200;-79
2022/10/20 02:20:15;;;;;;;11.07;8.77;;;9.00;99.90;;;;;;5058547;28;20205;-79
2022/10/20 02:22:43;;;;;;;11.87;9.07;;;9.00;99.90;;;;;;5055164;28;20194;-77
2022/10/20 02:25:11;;;;;;;15.77;9.57;;;9.00;99.90;;;;;;5055774;28;20285;-77
2022/10/20 02:27:42;;;;;;;15.07;9.43;;;8.90;99.90;;;;;;5054578;28;20194;-78
2022/10/20 02:30:12;;;;;;;11.63;8.87;;;8.90;99.90;;;;;;5055763;28;20193;-77
2022/10/20 02:32:43;;;;;;;10.27;8.30;;;9.00;99.90;;;;;;5055364;28;20598;-76
2022/10/20 02:35:13;;;;;;;11.50;8.53;;;8.90;99.90;;;;;;5054491;28;20262;-77
2022/10/20 02:37:40;;;;;;;10.83;8.33;;;8.90;99.90;;;;;;5055439;28;20197;-78
2022/10/20 02:40:08;;;;;;;11.13;9.47;;;8.90;99.90;;;;;;5055273;28;20217;-77
2022/10/20 02:42:35;;;;;;;13.47;9.43;;;8.90;99.90;;;;;;5055197;28;20208;-79
2022/10/20 02:45:02;;;;;;;13.87;8.67;;;8.90;99.90;;;;;;5055874;28;20205;-77
2022/10/20 02:47:30;;;;;;;11.13;8.50;;;8.90;99.90;;;;;;5055646;28;20285;-82
2022/10/20 02:49:57;;;;;;;12.43;9.20;;;8.90;99.90;;;;;;5055230;28;20202;-80
2022/10/20 02:52:24;;;;;;;12.93;9.07;;;8.90;99.90;;;;;;5055056;28;20237;-79
2022/10/20 02:54:51;;;;;;;13.43;9.20;;;8.90;99.90;;;;;;5054930;28;20811;-78
2022/10/20 02:57:17;;;;;;;14.93;9.10;;;8.90;99.90;;;;;;5054391;28;20212;-78
2022/10/20 02:59:44;;;;;;;12.20;9.37;;;8.90;99.90;;;;;;5055053;28;20197;-77
2022/10/20 03:02:11;;;;;;;18.10;9.17;;;8.90;99.90;;;;;;5054738;28;20612;-78
2022/10/20 03:04:39;;;;;;;14.87;9.03;;;8.90;99.90;;;;;;5054471;28;20230;-78
2022/10/20 03:07:06;;;;;;;12.97;9.37;;;8.90;99.90;;;;;;5054534;28;20297;-78
2022/10/20 03:09:33;;;;;;;13.37;9.43;;;8.90;99.90;;;;;;5054405;28;20198;-77
2022/10/20 03:12:00;;;;;;;13.73;9.67;;;8.90;99.90;;;;;;5053808;28;20194;-77
2022/10/20 03:14:27;;;;;;;11.80;8.60;;;8.90;99.90;;;;;;5054815;28;20202;-78
2022/10/20 03:16:54;;;;;;;13.33;9.20;;;8.90;99.90;;;;;;5054116;28;20209;-77
2022/10/20 03:19:20;;;;;;;11.70;9.57;;;8.90;99.90;;;;;;5054471;28;20595;-78
2022/10/20 03:21:49;;;;;;;13.03;9.63;;;8.90;99.90;;;;;;5054501;28;20214;-78
2022/10/20 03:24:16;;;;;;;13.30;10.47;;;8.90;99.90;;;;;;5054036;28;20222;-77
2022/10/20 03:26:42;;;;;;;13.17;9.90;;;8.90;99.90;;;;;;5054710;28;20285;-79
2022/10/20 03:29:09;;;;;;;16.13;10.27;;;8.90;99.90;;;;;;5054375;28;20218;-78
2022/10/20 03:31:36;;;;;;;13.97;9.70;;;8.90;99.90;;;;;;5053854;28;20200;-78
2022/10/20 03:34:03;;;;;;;12.70;9.90;;;8.90;99.90;;;;;;5054187;28;20208;-78
2022/10/20 03:36:30;;;;;;;12.53;9.63;;;8.90;99.90;;;;;;5054330;28;20306;-78
2022/10/20 03:38:58;;;;;;;14.17;10.53;;;9.00;99.90;;;;;;5053480;28;20720;-79
2022/10/20 03:41:25;;;;;;;14.43;10.33;;;8.90;99.90;;;;;;5054540;28;20206;-77
2022/10/20 03:43:52;;;;;;;11.80;9.50;;;8.90;99.90;;;;;;5054142;28;20230;-77
2022/10/20 03:46:19;;;;;;;14.70;10.13;;;8.90;99.90;;;;;;5053945;28;20202;-77
2022/10/20 03:48:45;;;;;;;17.20;10.97;;;8.90;99.90;;;;;;5054061;28;20587;-78
2022/10/20 03:51:14;;;;;;;14.67;10.13;;;8.90;99.90;;;;;;5053550;28;20202;-78
2022/10/20 03:53:41;;;;;;;12.77;10.57;;;8.90;99.90;;;;;;5053555;28;20202;-79
2022/10/20 03:56:12;;;;;;;16.20;10.43;;;8.90;99.90;;;;;;5053484;28;20233;-78
2022/10/20 03:58:39;;;;;;;13.83;9.57;;;8.90;99.90;;;;;;5036419;28;20202;-79
2022/10/20 04:01:08;;;;;;;14.53;10.40;;;8.80;99.90;;;;;;5053186;28;20355;-77
2022/10/20 04:03:35;;;;;;;14.57;9.77;;;8.80;99.90;;;;;;5053554;28;20222;-78
2022/10/20 04:06:02;;;;;;;12.50;9.93;;;8.90;99.90;;;;;;5053523;28;20656;-79
2022/10/20 04:08:28;;;;;;;11.73;9.20;;;8.90;99.90;;;;;;5053363;28;20208;-78
2022/10/20 04:10:55;;;;;;;15.07;10.37;;;8.90;99.90;;;;;;5068940;28;20208;-79
2022/10/20 04:13:24;;;;;;;11.23;9.60;;;8.90;99.90;;;;;;5073168;28;20200;-79
2022/10/20 04:15:50;;;;;;;14.23;10.60;;;8.90;99.90;;;;;;5073268;28;20197;-78
2022/10/20 04:18:17;;;;;;;14.17;10.07;;;8.90;99.90;;;;;;5072589;28;20197;-77
2022/10/20 04:20:44;;;;;;;12.83;10.33;;;8.90;99.90;;;;;;5073140;28;20197;-78
2022/10/20 04:23:11;;;;;;;12.33;9.20;;;8.90;99.90;;;;;;5056442;28;20289;-77
2022/10/20 04:25:44;;;;;;;16.03;10.80;;;8.80;99.90;;;;;;5057688;28;20201;-80
2022/10/20 04:28:11;;;;;;;15.57;10.63;;;8.90;99.90;;;;;;5072790;28;20199;-79
2022/10/20 04:30:40;;;;;;;13.23;10.77;;;8.80;99.90;;;;;;5056510;28;20202;-78
2022/10/20 04:33:07;;;;;;;10.83;9.73;;;8.80;99.90;;;;;;5053371;28;20202;-79
2022/10/20 04:35:34;;;;;;;14.03;10.80;;;8.90;99.90;;;;;;5056773;28;20208;-78
2022/10/20 04:38:01;;;;;;;12.50;10.50;;;8.80;99.90;;;;;;5073127;28;20208;-78
2022/10/20 04:40:28;;;;;;;17.40;11.33;;;8.80;99.90;;;;;;5059993;28;20210;-78
2022/10/20 04:42:55;;;;;;;15.47;11.00;;;8.80;99.90;;;;;;5052253;28;20666;-80
2022/10/20 04:45:22;;;;;;;15.23;11.07;;;8.80;99.90;;;;;;5053325;28;20226;-78
2022/10/20 04:47:50;;;;;;;14.10;11.33;;;8.80;99.90;;;;;;5052903;28;20526;-78
2022/10/20 04:50:17;;;;;;;14.17;10.63;;;8.80;99.90;;;;;;5051961;28;20201;-78
2022/10/20 04:52:44;;;;;;;12.63;10.87;;;8.80;99.90;;;;;;5054884;28;20312;-78
2022/10/20 04:55:11;;;;;;;15.80;11.87;;;8.80;99.90;;;;;;5072605;28;20629;-78
2022/10/20 04:57:38;;;;;;;17.20;11.57;;;8.80;99.90;;;;;;5072316;28;20201;-78
2022/10/20 05:00:05;;;;;;;14.37;10.97;;;8.80;99.90;;;;;;5071420;28;20605;-78
2022/10/20 05:02:32;;;;;;;16.00;11.60;;;8.90;99.90;;;;;;5071889;28;20548;-80
2022/10/20 05:05:00;;;;;;;15.37;11.57;;;8.90;99.90;;;;;;5072446;28;20225;-80
2022/10/20 05:07:30;;;;;;;19.67;12.20;;;8.90;99.90;;;;;;5072965;28;20574;-80
2022/10/20 05:09:56;;;;;;;16.87;12.70;;;8.90;99.90;;;;;;5054467;28;20364;-79
2022/10/20 05:12:23;;;;;;;16.97;12.67;;;9.00;99.90;;;;;;5052464;28;20196;-80
2022/10/20 05:14:50;;;;;;;15.23;11.90;;;9.00;99.90;;;;;;5070023;28;20597;-84
2022/10/20 05:17:17;;;;;;;18.33;12.93;;;9.00;99.90;;;;;;5052176;28;20225;-83
2022/10/20 05:19:44;;;;;;;20.23;12.10;;;9.00;99.90;;;;;;5053031;28;20202;-84
2022/10/20 05:22:12;;;;;;;16.97;12.27;;;9.00;99.90;;;;;;5054929;28;20248;-80
2022/10/20 05:24:39;;;;;;;16.53;11.97;;;9.00;99.90;;;;;;5055390;28;20268;-81
2022/10/20 05:27:06;;;;;;;17.67;12.40;;;9.10;99.90;;;;;;5056601;28;20193;-83
2022/10/20 05:29:33;;;;;;;17.80;12.80;;;9.10;99.90;;;;;;5058416;28;20208;-80
2022/10/20 05:32:00;;;;;;;15.30;12.63;;;9.10;99.90;;;;;;5059274;28;20198;-80
2022/10/20 05:34:26;;;;;;;16.77;12.63;;;9.10;99.90;;;;;;5060396;28;20198;-81
2022/10/20 05:36:53;;;;;;;16.13;12.43;;;9.10;99.90;;;;;;5059155;28;20205;-81
2022/10/20 05:39:22;;;;;;;17.27;12.53;;;9.10;99.90;;;;;;5054639;28;20204;-80
2022/10/20 05:41:49;;;;;;;16.17;12.13;;;9.10;99.90;;;;;;5054168;28;20214;-79
2022/10/20 05:44:16;;;;;;;14.93;11.70;;;9.10;99.90;;;;;;5053611;28;20226;-80
2022/10/20 05:46:43;;;;;;;17.40;12.30;;;9.20;99.90;;;;;;5052163;28;20283;-81
2022/10/20 05:49:14;;;;;;;17.00;12.13;;;9.20;99.90;;;;;;5070075;28;20209;-80
2022/10/20 05:51:41;;;;;;;16.50;12.50;;;9.20;99.90;;;;;;5071801;28;20225;-80
2022/10/20 05:54:11;;;;;;;20.90;12.53;;;9.20;99.90;;;;;;5071974;28;20207;-81
2022/10/20 05:56:40;;;;;;;17.33;12.87;;;9.20;99.90;;;;;;5061189;28;20693;-78
2022/10/20 05:59:07;;;;;;;21.87;13.20;;;9.20;99.90;;;;;;5050901;28;20300;-81
2022/10/20 06:01:46;;;;;;;17.47;12.93;;;9.20;99.90;;;;;;5051807;28;20281;-81
2022/10/20 06:04:14;;;;;;;16.90;12.37;;;9.20;99.90;;;;;;5052390;28;20214;-83
2022/10/20 06:06:40;;;;;;;16.87;13.50;;;9.20;99.90;;;;;;5051984;28;20198;-78
2022/10/20 06:09:09;;;;;;;16.77;12.57;;;9.30;99.90;;;;;;5055259;28;20251;-79
2022/10/20 06:11:37;;;;;;;17.67;12.77;;;9.30;99.90;;;;;;5071738;28;20668;-79
2022/10/20 06:14:06;;;;;;;16.67;13.00;;;9.30;99.90;;;;;;5055187;28;20198;-78
2022/10/20 06:16:33;;;;;;;17.67;13.47;;;9.40;99.90;;;;;;5052153;28;20208;-80
2022/10/20 06:19:00;;;;;;;18.17;13.27;;;9.40;99.90;;;;;;5051422;28;20208;-79
2022/10/20 06:21:29;;;;;;;14.03;12.53;;;9.40;99.90;;;;;;5051070;28;20201;-80
2022/10/20 06:23:59;;;;;;;17.37;13.17;;;9.40;99.90;;;;;;5051682;28;20630;-78
2022/10/20 06:26:31;;;;;;;20.87;13.10;;;9.40;99.90;;;;;;5051572;28;20194;-78
2022/10/20 06:28:58;;;;;;;20.83;14.20;;;9.40;99.90;;;;;;5051266;28;20201;-79
2022/10/20 06:31:29;;;;;;;21.83;13.40;;;9.40;99.90;;;;;;5051928;28;20237;-80
2022/10/20 06:33:56;;;;;;;14.37;12.43;;;9.50;99.90;;;;;;5051345;28;20515;-79
2022/10/20 06:36:24;;;;;;;21.03;13.60;;;9.40;99.90;;;;;;5051656;28;20535;-79
2022/10/20 06:38:54;;;;;;;20.80;13.67;;;9.50;99.90;;;;;;5052011;28;20240;-82
2022/10/20 06:41:21;;;;;;;16.80;13.00;;;9.50;99.90;;;;;;5051448;28;20194;-80
2022/10/20 06:43:48;;;;;;;17.27;13.47;;;9.50;99.90;;;;;;5051804;28;20591;-79
2022/10/20 06:46:17;;;;;;;21.33;14.07;;;9.50;99.90;;;;;;5054085;28;20312;-79
2022/10/20 06:48:45;;;;;;;18.57;14.27;;;9.60;99.90;;;;;;5054693;28;20295;-79
2022/10/20 06:51:15;;;;;;;18.57;13.37;;;9.60;99.90;;;;;;5054520;28;20213;-79
2022/10/20 06:53:43;;;;;;;17.77;13.73;;;9.60;99.90;;;;;;5055268;28;20194;-79
2022/10/20 06:56:13;;;;;;;18.33;13.57;;;9.60;99.90;;;;;;5054323;28;20224;-79
2022/10/20 06:58:41;;;;;;;18.63;13.80;;;9.60;99.90;;;;;;5055335;28;20268;-78
2022/10/20 07:01:13;;;;;;;17.10;13.57;;;9.60;99.90;;;;;;5061685;28;20213;-79
2022/10/20 07:03:40;;;;;;;15.63;12.57;;;9.60;99.90;;;;;;5074061;28;20255;-78
2022/10/20 07:06:12;;;;;;;19.33;13.93;;;9.70;99.90;;;;;;5074273;28;20515;-79
2022/10/20 07:08:39;;;;;;;19.00;14.07;;;9.70;99.90;;;;;;5074973;28;20272;-78
2022/10/20 07:11:08;;;;;;;16.73;13.40;;;9.70;99.90;;;;;;5057398;28;20204;-78
2022/10/20 07:13:37;;;;;;;17.70;13.17;;;9.70;99.90;;;;;;5075159;28;20272;-82
2022/10/20 07:16:06;;;;;;;16.20;13.77;;;9.80;99.90;;;;;;5074121;28;20202;-77
2022/10/20 07:18:33;;;;;;;17.40;14.20;;;9.80;99.90;;;;;;5055594;28;20555;-78
2022/10/20 07:21:02;;;;;;;17.17;13.53;;;9.80;99.90;;;;;;5054457;28;20217;-79
2022/10/20 07:23:32;;;;;;;19.73;14.30;;;9.80;99.90;;;;;;5053448;28;20756;-80
2022/10/20 07:26:02;;;;;;;20.50;13.83;;;9.90;99.90;;;;;;5054042;28;20218;-79
2022/10/20 07:28:29;;;;;;;18.87;13.23;;;9.90;99.90;;;;;;5054460;28;20292;-78
2022/10/20 07:30:56;;;;;;;18.47;13.83;;;9.90;99.90;;;;;;5053911;28;20485;-79
2022/10/20 07:33:23;;;;;;;17.60;13.77;;;9.90;99.90;;;;;;5054703;28;20355;-79
2022/10/20 07:35:50;;;;;;;19.43;13.73;;;10.00;99.90;;;;;;5070472;28;20590;-78
2022/10/20 07:38:17;;;;;;;18.87;13.77;;;10.00;99.90;;;;;;5056022;28;20201;-78
2022/10/20 07:40:46;;;;;;;18.50;15.03;;;10.00;99.90;;;;;;5074654;28;20207;-78
2022/10/20 07:43:12;;;;;;;19.17;14.47;;;10.10;99.90;;;;;;5071653;28;20203;-78
2022/10/20 07:45:39;;;;;;;19.13;14.83;;;10.10;99.90;;;;;;5053759;28;20221;-77
2022/10/20 07:48:08;;;;;;;20.80;14.90;;;10.20;99.90;;;;;;5054259;28;20274;-78
2022/10/20 07:50:36;;;;;;;20.07;15.43;;;10.10;99.90;;;;;;5036569;28;20198;-79
2022/10/20 07:53:03;;;;;;;20.23;15.00;;;10.20;99.90;;;;;;5068094;28;20229;-78
2022/10/20 07:55:29;;;;;;;19.37;15.23;;;10.20;99.90;;;;;;5073375;28;20308;-78
2022/10/20 07:57:58;;;;;;;20.83;15.83;;;10.30;99.90;;;;;;5070426;28;20209;-77
2022/10/20 08:00:25;;;;;;;17.57;14.07;;;10.30;99.90;;;;;;5060178;28;20210;-80
2022/10/20 08:02:52;;;;;;;19.30;14.40;;;10.30;99.90;;;;;;5069484;28;20204;-78
2022/10/20 08:05:19;;;;;;;19.80;14.73;;;10.30;99.90;;;;;;5053664;28;20232;-81
2022/10/20 08:07:45;;;;;;;17.80;14.57;;;10.40;99.90;;;;;;5082317;28;20193;-79
2022/10/20 08:10:12;;;;;;;22.47;15.63;;;10.40;99.90;;;;;;5094402;28;20676;-80
2022/10/20 08:12:39;;;;;;;18.70;14.97;;;10.50;99.90;;;;;;5086561;28;20205;-85
2022/10/20 08:15:09;;;;;;;18.70;14.93;;;10.50;99.90;;;;;;5073237;28;20767;-81
2022/10/20 08:17:36;;;;;;;20.07;14.53;;;10.50;99.90;;;;;;5074654;28;20209;-85
2022/10/20 08:20:04;;;;;;;18.97;14.27;;;10.60;99.90;;;;;;5068602;28;20193;-86
2022/10/20 08:22:31;;;;;;;18.60;14.67;;;10.70;99.90;;;;;;5071229;28;20206;-82
2022/10/20 08:24:57;;;;;;;17.53;14.17;;;10.70;99.90;;;;;;5059271;28;20220;-79
2022/10/20 08:27:25;;;;;;;19.17;14.07;;;10.70;99.90;;;;;;5073471;28;20601;-86
2022/10/20 08:29:52;;;;;;;19.37;15.00;;;10.80;99.90;;;;;;5070043;28;20300;-80
2022/10/20 08:32:20;;;;;;;21.00;15.13;;;10.90;99.90;;;;;;5073586;28;20606;-80
2022/10/20 08:34:47;;;;;;;18.70;14.57;;;10.90;99.90;;;;;;5073130;28;20207;-85
2022/10/20 08:37:14;;;;;;;19.10;15.03;;;11.00;99.90;;;;;;5067683;28;20205;-83
2022/10/20 08:39:41;;;;;;;22.47;16.03;;;11.00;99.90;;;;;;5073036;28;20510;-79
2022/10/20 08:42:11;;;;;;;17.13;14.73;;;11.10;99.90;;;;;;5072998;28;20199;-80
2022/10/20 08:44:39;;;;;;;20.13;14.10;;;11.10;99.90;;;;;;5057912;28;20569;-80
2022/10/20 08:47:17;;;;;;;18.17;14.30;;;11.20;99.90;;;;;;5053176;28;20672;-80
2022/10/20 08:49:46;;;;;;;20.93;14.97;;;11.20;99.90;;;;;;5052744;28;20512;-79
2022/10/20 08:52:14;;;;;;;19.33;14.60;;;11.20;99.90;;;;;;5054114;28;20531;-78
2022/10/20 08:54:41;;;;;;;19.57;14.60;;;11.30;99.90;;;;;;5073446;28;20217;-82
2022/10/20 08:57:20;;;;;;;18.53;15.07;;;11.30;99.90;;;;;;5060030;28;20206;-79
2022/10/20 08:59:47;;;;;;;18.47;14.83;;;11.40;99.90;;;;;;5052929;28;20793;-78
2022/10/20 09:02:16;;;;;;;18.73;15.70;;;11.40;99.90;;;;;;5063801;28;20197;-81
2022/10/20 09:04:48;;;;;;;17.47;14.57;;;11.50;99.90;;;;;;5052973;28;20208;-80
2022/10/20 09:07:25;;;;;;;20.47;13.70;;;11.50;99.90;;;;;;5052640;28;20228;-80
2022/10/20 09:09:54;;;;;;;17.60;14.10;;;11.60;99.90;;;;;;5051763;28;20197;-78
2022/10/20 09:12:22;;;;;;;17.37;13.97;;;11.60;99.90;;;;;;5052126;28;20271;-78
2022/10/20 09:14:49;;;;;;;18.27;14.77;;;11.70;99.90;;;;;;5051776;28;20194;-78
2022/10/20 09:17:18;;;;;;;17.73;13.87;;;11.70;99.90;;;;;;5051129;28;20198;-77
2022/10/20 09:19:51;;;;;;;19.47;14.60;;;11.80;99.90;;;;;;5052065;28;20204;-76
2022/10/20 09:22:21;;;;;;;17.80;14.07;;;11.80;99.90;;;;;;5059571;28;20197;-79
2022/10/20 09:24:48;;;;;;;18.97;13.90;;;11.80;99.90;;;;;;5055249;28;20348;-78
2022/10/20 09:27:22;;;;;;;17.40;12.93;;;11.80;99.90;;;;;;5051907;28;20194;-78
2022/10/20 09:29:49;;;;;;;16.00;14.03;;;11.80;99.90;;;;;;5051779;28;20198;-77
2022/10/20 09:32:20;;;;;;;17.77;13.23;;;11.90;99.90;;;;;;5052327;28;20202;-77
2022/10/20 09:34:47;;;;;;;18.40;14.23;;;11.90;99.90;;;;;;5051911;28;20220;-77
2022/10/20 09:37:18;;;;;;;15.30;13.33;;;12.00;99.90;;;;;;5051281;28;20524;-78
2022/10/20 09:39:52;;;;;;;18.13;13.73;;;12.00;99.90;;;;;;5052255;28;20193;-82
2022/10/20 09:42:23;;;;;;;17.27;14.60;;;12.00;99.90;;;;;;5052100;28;20297;-78
2022/10/20 09:44:54;;;;;;;20.23;14.03;;;12.00;99.90;;;;;;5051258;28;20206;-78
2022/10/20 09:47:22;;;;;;;16.07;12.87;;;12.00;99.90;;;;;;5051662;28;20206;-77
2022/10/20 09:49:54;;;;;;;18.37;13.57;;;12.10;99.90;;;;;;5051980;28;20194;-78
2022/10/20 09:52:26;;;;;;;17.00;12.63;;;12.10;99.90;;;;;;5051212;28;20241;-77
2022/10/20 09:54:59;;;;;;;20.03;13.80;;;12.10;99.90;;;;;;5051992;28;20228;-77
2022/10/20 09:57:26;;;;;;;18.30;13.80;;;12.10;99.90;;;;;;5051763;28;20198;-77
2022/10/20 09:59:55;;;;;;;16.70;13.00;;;12.10;99.90;;;;;;5051204;28;20202;-77
2022/10/20 10:02:31;;;;;;;17.73;14.97;;;12.10;99.90;;;;;;5051599;28;20198;-78
2022/10/20 10:05:19;;;;;;;15.37;12.57;;;12.10;99.90;;;;;;5051013;28;20213;-77
2022/10/20 10:07:57;;;;;;;17.70;12.87;;;12.20;99.90;;;;;;5051956;28;20243;-78
2022/10/20 10:10:27;;;;;;;16.63;13.20;;;12.20;99.90;;;;;;5051655;28;20190;-78
2022/10/20 10:12:55;;;;;;;17.50;14.30;;;12.20;99.90;;;;;;5050578;28;20208;-78
2022/10/20 10:15:29;;;;;;;15.93;14.20;;;12.20;99.90;;;;;;5051851;28;20617;-79
2022/10/20 10:17:57;;;;;;;19.97;15.00;;;12.20;99.90;;;;;;5051576;28;20200;-77
2022/10/20 10:20:36;;;;;;;18.80;14.97;;;12.20;99.90;;;;;;5052337;28;20801;-78
2022/10/20 10:23:20;;;;;;;16.90;13.53;;;12.20;99.90;;;;;;5055773;28;20193;-77
2022/10/20 10:25:48;;;;;;;18.97;15.30;;;12.20;99.90;;;;;;5055563;28;20221;-77
2022/10/20 10:28:36;;;;;;;17.20;13.57;;;12.20;99.90;;;;;;5054703;28;20220;-77
2022/10/20 10:31:23;;;;;;;17.60;14.03;;;12.20;99.90;;;;;;5055578;28;20487;-76
2022/10/20 10:33:54;;;;;;;20.47;13.63;;;12.30;99.90;;;;;;5052422;28;20590;-79
2022/10/20 10:36:33;;;;;;;23.87;15.03;;;12.30;99.90;;;;;;5055296;28;20209;-77
2022/10/20 10:39:03;;;;;;;16.77;14.47;;;12.30;99.90;;;;;;5055745;28;20189;-78
2022/10/20 10:41:51;;;;;;;20.07;14.40;;;12.40;99.90;;;;;;5055204;28;20501;-77
2022/10/20 10:44:27;;;;;;;20.87;14.53;;;12.40;99.90;;;;;;5051551;28;20594;-78
2022/10/20 10:47:02;;;;;;;19.10;15.13;;;12.40;99.90;;;;;;5055430;28;20247;-77
2022/10/20 10:49:52;;;;;;;17.37;14.73;;;12.50;99.90;;;;;;5054534;28;20205;-78
2022/10/20 10:52:33;;;;;;;19.00;15.90;;;12.50;99.90;;;;;;5054632;28;20288;-77
2022/10/20 10:55:15;;;;;;;21.57;16.77;;;12.60;99.90;;;;;;5054034;28;20658;-78
2022/10/20 10:57:54;;;;;;;19.33;14.43;;;12.60;99.90;;;;;;5058247;28;20189;-79
2022/10/20 11:00:32;;;;;;;19.97;15.50;;;12.60;99.90;;;;;;5062664;28;20620;-78
2022/10/20 11:03:03;;;;;;;19.63;14.10;;;12.60;99.90;;;;;;5054289;28;20215;-78
2022/10/20 11:05:58;;;;;;;17.90;14.70;;;12.60;99.90;;;;;;5054520;28;20217;-78
2022/10/20 11:08:34;;;;;;;20.77;16.13;;;12.60;99.90;;;;;;5036437;28;20197;-78
2022/10/20 11:11:13;;;;;;;29.47;15.57;;;12.70;99.90;;;;;;5054651;28;20205;-79
2022/10/20 11:13:47;;;;;;;22.20;16.37;;;12.70;99.90;;;;;;5054192;28;20194;-79
2022/10/20 11:16:28;;;;;;;20.43;16.37;;;12.70;99.90;;;;;;5053487;28;20669;-79
2022/10/20 11:19:16;;;;;;;24.20;16.03;;;12.80;99.90;;;;;;5054632;28;20196;-79
2022/10/20 11:21:53;;;;;;;21.00;16.20;;;12.80;99.90;;;;;;5054652;28;20206;-79
2022/10/20 11:24:34;;;;;;;24.20;16.90;;;12.80;99.90;;;;;;5053478;28;20212;-77
2022/10/20 11:27:07;;;;;;;24.10;18.03;;;12.90;99.90;;;;;;5054320;28;20256;-80
2022/10/20 11:29:40;;;;;;;21.60;17.33;;;12.90;99.90;;;;;;5072592;28;20193;-78
2022/10/20 11:32:16;;;;;;;21.53;17.30;;;12.90;99.90;;;;;;5062688;28;20281;-77
2022/10/20 11:34:50;;;;;;;23.03;18.17;;;12.90;99.90;;;;;;5054063;28;20186;-77
2022/10/20 11:37:22;;;;;;;23.47;18.27;;;12.90;99.90;;;;;;5053312;28;20198;-78
2022/10/20 11:39:55;;;;;;;23.30;18.77;;;13.00;99.90;;;;;;5054328;28;20186;-77
2022/10/20 11:42:32;;;;;;;22.90;17.97;;;13.00;99.90;;;;;;5054066;28;20200;-78
2022/10/20 11:45:01;;;;;;;23.90;17.50;;;13.00;99.90;;;;;;5073370;28;20203;-78
2022/10/20 11:47:35;;;;;;;22.00;18.23;;;13.00;99.90;;;;;;5073342;28;20627;-77
2022/10/20 11:50:05;;;;;;;24.40;18.37;;;13.00;99.90;;;;;;5063457;28;20209;-78
2022/10/20 11:53:02;;;;;;;23.57;17.77;;;13.10;99.90;;;;;;5052983;28;20240;-80
2022/10/20 11:55:40;;;;;;;24.57;18.03;;;13.10;99.90;;;;;;5070385;28;20217;-79
2022/10/20 11:58:30;;;;;;;21.93;17.73;;;13.10;99.90;;;;;;5073279;28;20201;-78
2022/10/20 12:01:14;;;;;;;24.23;18.20;;;13.20;99.90;;;;;;5064640;28;20286;-78
2022/10/20 12:04:04;;;;;;;26.97;19.60;;;13.20;99.90;;;;;;5050470;28;20197;-77
2022/10/20 12:06:58;;;;;;;23.90;18.67;;;13.30;99.90;;;;;;5052743;28;20222;-78
2022/10/20 12:10:07;;;;;;;25.53;19.27;;;13.30;99.90;;;;;;5054594;28;20194;-83
2022/10/20 12:12:40;;;;;;;22.83;19.43;;;13.40;99.90;;;;;;5039586;28;20209;-77
2022/10/20 12:15:21;;;;;;;28.47;19.93;;;13.40;99.90;;;;;;5053723;28;20186;-78
2022/10/20 12:17:49;;;;;;;23.23;17.90;;;13.50;99.90;;;;;;5053027;28;20194;-76
2022/10/20 12:20:48;;;;;;;29.10;20.20;;;13.50;99.90;;;;;;5052919;28;20198;-79
2022/10/20 12:23:50;;;;;;;25.17;19.10;;;13.50;99.90;;;;;;5053456;28;20649;-77
2022/10/20 12:27:06;;;;;;;28.17;19.50;;;13.50;99.90;;;;;;5052338;28;20566;-78
2022/10/20 12:29:57;;;;;;;25.17;18.50;;;13.50;99.90;;;;;;5052434;28;20197;-77
2022/10/20 12:32:38;;;;;;;29.03;20.53;;;13.50;99.90;;;;;;5053227;28;20182;-77
2022/10/20 12:35:42;;;;;;;26.10;19.40;;;13.50;99.90;;;;;;5052841;28;20263;-77
2022/10/20 12:38:17;;;;;;;27.47;19.60;;;13.50;99.90;;;;;;5052873;28;20598;-76
2022/10/20 12:40:49;;;;;;;26.30;20.50;;;13.50;99.90;;;;;;5052218;28;20193;-76
2022/10/20 12:43:25;;;;;;;30.43;22.30;;;13.50;99.90;;;;;;5051725;28;20194;-76
2022/10/20 12:45:59;;;;;;;27.70;21.50;;;13.50;99.90;;;;;;5051789;28;20212;-76
2022/10/20 12:48:27;;;;;;;26.63;21.13;;;13.50;99.90;;;;;;5051017;28;20222;-76
2022/10/20 12:51:05;;;;;;;30.40;22.23;;;13.50;99.90;;;;;;5052542;28;20267;-76
2022/10/20 12:53:33;;;;;;;24.60;20.33;;;13.60;99.90;;;;;;5052444;28;20192;-76
2022/10/20 12:56:05;;;;;;;26.77;22.03;;;13.60;99.90;;;;;;5051457;28;20300;-76